sensor_id;sensor_type;location;lat;lon;timestamp;pressure;altitude;pressure_sealevel;temperature;humidity
53546;BME280;39432;51.902;10.844;2023-12-20T00:01:53;99136.38;;;6.86;100.00
53546;BME280;39432;51.902;10.844;2023-12-20T00:04:43;99136.06;;;6.83;100.00
53546;BME280;39432;51.902;10.844;2023-12-20T00:07:36;99147.69;;;6.95;100.00
53546;BME280;39432;51.902;10.844;2023-12-20T00:10:26;99150.03;;;7.03;100.00
53546;BME280;39432;51.902;10.844;2023-12-20T00:13:16;99136.91;;;7.17;100.00
53546;BME280;39432;51.902;10.844;2023-12-20T00:16:06;99122.88;;;7.08;100.00
53546;BME280;39432;51.902;10.844;2023-12-20T00:18:57;99113.16;;;7.12;100.00
53546;BME280;39432;51.902;10.844;2023-12-20T00:21:47;99123.56;;;7.16;100.00
53546;BME280;39432;51.902;10.844;2023-12-20T00:24:40;99114.66;;;7.03;100.00
53546;BME280;39432;51.902;10.844;2023-12-20T00:27:30;99112.84;;;7.26;100.00
53546;BME280;39432;51.902;10.844;2023-12-20T00:30:20;99107.16;;;7.27;100.00
53546;BME280;39432;51.902;10.844;2023-12-20T00:33:10;99118.44;;;7.36;100.00
53546;BME280;39432;51.902;10.844;2023-12-20T00:36:00;99108.06;;;7.33;100.00
53546;BME280;39432;51.902;10.844;2023-12-20T00:38:50;99112.34;;;7.29;100.00
53546;BME280;39432;51.902;10.844;2023-12-20T00:41:43;99111.28;;;7.13;100.00
53546;BME280;39432;51.902;10.844;2023-12-20T00:44:34;99119.25;;;7.20;100.00
53546;BME280;39432;51.902;10.844;2023-12-20T00:47:24;99105.91;;;7.18;100.00
53546;BME280;39432;51.902;10.844;2023-12-20T00:50:14;99117.13;;;7.22;100.00
53546;BME280;39432;51.902;10.844;2023-12-20T00:53:04;99124.03;;;7.12;100.00
53546;BME280;39432;51.902;10.844;2023-12-20T00:55:54;99123.97;;;7.24;100.00
53546;BME280;39432;51.902;10.844;2023-12-20T00:58:48;99122.06;;;7.25;100.00
53546;BME280;39432;51.902;10.844;2023-12-20T01:01:39;99118.28;;;7.26;100.00
53546;BME280;39432;51.902;10.844;2023-12-20T01:04:29;99121.00;;;7.09;100.00
53546;BME280;39432;51.902;10.844;2023-12-20T01:07:19;99125.03;;;7.23;100.00
53546;BME280;39432;51.902;10.844;2023-12-20T01:10:09;99122.06;;;7.25;100.00
53546;BME280;39432;51.902;10.844;2023-12-20T01:13:00;99120.50;;;7.29;100.00
53546;BME280;39432;51.902;10.844;2023-12-20T01:15:52;99125.03;;;7.40;100.00
53546;BME280;39432;51.902;10.844;2023-12-20T01:18:43;99117.47;;;7.42;100.00
53546;BME280;39432;51.902;10.844;2023-12-20T01:21:33;99101.63;;;7.39;100.00
53546;BME280;39432;51.902;10.844;2023-12-20T01:24:23;99105.88;;;7.52;100.00
53546;BME280;39432;51.902;10.844;2023-12-20T01:27:13;99105.06;;;7.34;100.00
53546;BME280;39432;51.902;10.844;2023-12-20T01:30:04;99106.34;;;7.27;100.00
53546;BME280;39432;51.902;10.844;2023-12-20T01:32:59;99110.69;;;7.28;100.00
53546;BME280;39432;51.902;10.844;2023-12-20T01:35:50;99094.38;;;7.28;100.00
53546;BME280;39432;51.902;10.844;2023-12-20T01:38:40;99099.31;;;7.31;100.00
53546;BME280;39432;51.902;10.844;2023-12-20T01:41:30;99105.44;;;7.21;100.00
53546;BME280;39432;51.902;10.844;2023-12-20T01:44:20;99108.72;;;7.23;100.00
53546;BME280;39432;51.902;10.844;2023-12-20T01:47:10;99106.56;;;7.08;100.00
53546;BME280;39432;51.902;10.844;2023-12-20T01:50:04;99103.44;;;7.17;100.00
53546;BME280;39432;51.902;10.844;2023-12-20T01:52:56;99100.38;;;7.13;100.00
53546;BME280;39432;51.902;10.844;2023-12-20T01:55:50;99096.53;;;7.09;100.00
53546;BME280;39432;51.902;10.844;2023-12-20T01:58:44;99092.91;;;7.03;100.00
53546;BME280;39432;51.902;10.844;2023-12-20T02:01:35;99105.59;;;7.15;100.00
53546;BME280;39432;51.902;10.844;2023-12-20T02:04:26;99101.81;;;7.16;100.00
53546;BME280;39432;51.902;10.844;2023-12-20T02:07:20;99100.63;;;7.11;100.00
53546;BME280;39432;51.902;10.844;2023-12-20T02:10:11;99101.38;;;7.07;100.00
53546;BME280;39432;51.902;10.844;2023-12-20T02:13:01;99109.38;;;7.13;100.00
53546;BME280;39432;51.902;10.844;2023-12-20T02:15:51;99112.00;;;7.08;100.00
53546;BME280;39432;51.902;10.844;2023-12-20T02:18:42;99116.47;;;7.15;100.00
53546;BME280;39432;51.902;10.844;2023-12-20T02:21:35;99130.47;;;7.23;100.00
53546;BME280;39432;51.902;10.844;2023-12-20T02:24:25;99129.66;;;7.23;100.00
53546;BME280;39432;51.902;10.844;2023-12-20T02:27:18;99134.09;;;7.29;100.00
53546;BME280;39432;51.902;10.844;2023-12-20T02:30:10;99141.19;;;7.30;100.00
53546;BME280;39432;51.902;10.844;2023-12-20T02:33:00;99147.88;;;7.39;100.00
53546;BME280;39432;51.902;10.844;2023-12-20T02:35:51;99144.47;;;7.65;100.00
53546;BME280;39432;51.902;10.844;2023-12-20T02:38:43;99149.75;;;7.55;100.00
53546;BME280;39432;51.902;10.844;2023-12-20T02:41:34;99153.88;;;7.41;100.00
53546;BME280;39432;51.902;10.844;2023-12-20T02:44:24;99158.84;;;7.10;100.00
53546;BME280;39432;51.902;10.844;2023-12-20T02:47:14;99162.94;;;6.96;100.00
53546;BME280;39432;51.902;10.844;2023-12-20T02:50:05;99175.31;;;6.87;100.00
53546;BME280;39432;51.902;10.844;2023-12-20T02:52:55;99171.78;;;6.75;100.00
53546;BME280;39432;51.902;10.844;2023-12-20T02:55:48;99170.88;;;6.69;100.00
53546;BME280;39432;51.902;10.844;2023-12-20T02:58:38;99186.16;;;6.87;100.00
53546;BME280;39432;51.902;10.844;2023-12-20T03:01:29;99171.31;;;6.78;100.00
53546;BME280;39432;51.902;10.844;2023-12-20T03:04:19;99177.03;;;6.65;100.00
53546;BME280;39432;51.902;10.844;2023-12-20T03:07:09;99171.41;;;6.54;100.00
53546;BME280;39432;51.902;10.844;2023-12-20T03:10:00;99177.13;;;6.70;100.00
53546;BME280;39432;51.902;10.844;2023-12-20T03:13:08;99180.41;;;6.55;100.00
53546;BME280;39432;51.902;10.844;2023-12-20T03:15:59;99172.41;;;6.48;100.00
53546;BME280;39432;51.902;10.844;2023-12-20T03:18:49;99159.38;;;6.50;100.00
53546;BME280;39432;51.902;10.844;2023-12-20T03:21:39;99146.31;;;6.36;100.00
53546;BME280;39432;51.902;10.844;2023-12-20T03:24:29;99131.66;;;6.37;100.00
53546;BME280;39432;51.902;10.844;2023-12-20T03:27:19;99136.00;;;6.49;100.00
53546;BME280;39432;51.902;10.844;2023-12-20T03:30:12;99130.56;;;6.49;100.00
53546;BME280;39432;51.902;10.844;2023-12-20T03:33:03;99128.72;;;6.38;100.00
53546;BME280;39432;51.902;10.844;2023-12-20T03:35:54;99131.75;;;6.42;100.00
53546;BME280;39432;51.902;10.844;2023-12-20T03:38:45;99121.72;;;6.42;100.00
53546;BME280;39432;51.902;10.844;2023-12-20T03:41:35;99127.38;;;6.41;100.00
53546;BME280;39432;51.902;10.844;2023-12-20T03:44:25;99117.94;;;6.43;100.00
53546;BME280;39432;51.902;10.844;2023-12-20T03:47:18;99115.31;;;6.48;100.00
53546;BME280;39432;51.902;10.844;2023-12-20T03:50:08;99118.50;;;6.45;100.00
53546;BME280;39432;51.902;10.844;2023-12-20T03:52:59;99118.88;;;6.49;100.00
53546;BME280;39432;51.902;10.844;2023-12-20T03:55:49;99127.34;;;6.52;100.00
53546;BME280;39432;51.902;10.844;2023-12-20T03:58:39;99116.72;;;6.51;100.00
53546;BME280;39432;51.902;10.844;2023-12-20T04:01:29;99109.16;;;6.70;100.00
53546;BME280;39432;51.902;10.844;2023-12-20T04:04:22;99102.59;;;6.66;100.00
53546;BME280;39432;51.902;10.844;2023-12-20T04:07:12;99104.41;;;6.60;100.00
53546;BME280;39432;51.902;10.844;2023-12-20T04:10:03;99090.88;;;6.48;100.00
53546;BME280;39432;51.902;10.844;2023-12-20T04:12:53;99092.72;;;6.59;100.00
53546;BME280;39432;51.902;10.844;2023-12-20T04:15:44;99094.31;;;6.44;100.00
53546;BME280;39432;51.902;10.844;2023-12-20T04:18:35;99083.63;;;6.54;100.00
53546;BME280;39432;51.902;10.844;2023-12-20T04:21:28;99087.31;;;6.48;100.00
53546;BME280;39432;51.902;10.844;2023-12-20T04:24:18;99089.00;;;6.37;100.00
53546;BME280;39432;51.902;10.844;2023-12-20T04:27:09;99105.00;;;6.33;100.00
53546;BME280;39432;51.902;10.844;2023-12-20T04:29:59;99101.91;;;6.30;100.00
53546;BME280;39432;51.902;10.844;2023-12-20T04:32:51;99100.53;;;6.27;100.00
53546;BME280;39432;51.902;10.844;2023-12-20T04:35:42;99078.28;;;6.30;100.00
53546;BME280;39432;51.902;10.844;2023-12-20T04:38:35;99072.34;;;6.17;100.00
53546;BME280;39432;51.902;10.844;2023-12-20T04:41:26;99068.34;;;6.07;100.00
53546;BME280;39432;51.902;10.844;2023-12-20T04:44:16;99058.47;;;6.01;100.00
53546;BME280;39432;51.902;10.844;2023-12-20T04:47:06;99054.69;;;6.02;100.00
53546;BME280;39432;51.902;10.844;2023-12-20T04:49:56;99044.41;;;6.04;100.00
53546;BME280;39432;51.902;10.844;2023-12-20T04:52:46;99038.06;;;5.99;100.00
53546;BME280;39432;51.902;10.844;2023-12-20T04:55:39;99037.56;;;5.90;100.00
53546;BME280;39432;51.902;10.844;2023-12-20T04:58:29;99039.63;;;5.83;100.00
53546;BME280;39432;51.902;10.844;2023-12-20T05:01:20;99041.59;;;5.99;100.00
53546;BME280;39432;51.902;10.844;2023-12-20T05:04:10;99039.66;;;6.12;100.00
53546;BME280;39432;51.902;10.844;2023-12-20T05:07:01;99037.84;;;6.17;100.00
53546;BME280;39432;51.902;10.844;2023-12-20T05:09:52;99040.56;;;6.17;100.00
53546;BME280;39432;51.902;10.844;2023-12-20T05:12:46;99036.63;;;6.25;100.00
53546;BME280;39432;51.902;10.844;2023-12-20T05:15:36;99039.75;;;6.17;100.00
53546;BME280;39432;51.902;10.844;2023-12-20T05:18:26;99030.97;;;6.26;100.00
53546;BME280;39432;51.902;10.844;2023-12-20T05:21:16;99025.78;;;6.42;100.00
53546;BME280;39432;51.902;10.844;2023-12-20T05:24:06;99023.75;;;6.49;100.00
53546;BME280;39432;51.902;10.844;2023-12-20T05:26:56;99004.72;;;6.32;100.00
53546;BME280;39432;51.902;10.844;2023-12-20T05:29:49;98991.72;;;6.34;100.00
53546;BME280;39432;51.902;10.844;2023-12-20T05:32:40;98987.91;;;6.35;100.00
53546;BME280;39432;51.902;10.844;2023-12-20T05:35:30;98997.44;;;6.21;100.00
53546;BME280;39432;51.902;10.844;2023-12-20T05:38:20;98988.56;;;6.25;100.00
53546;BME280;39432;51.902;10.844;2023-12-20T05:41:10;98994.81;;;6.26;100.00
53546;BME280;39432;51.902;10.844;2023-12-20T05:44:01;98995.91;;;5.96;100.00
53546;BME280;39432;51.902;10.844;2023-12-20T05:46:53;98996.59;;;6.03;100.00
53546;BME280;39432;51.902;10.844;2023-12-20T05:49:44;98995.78;;;6.20;100.00
53546;BME280;39432;51.902;10.844;2023-12-20T05:52:34;98985.09;;;6.13;100.00
53546;BME280;39432;51.902;10.844;2023-12-20T05:55:24;98984.06;;;6.02;100.00
53546;BME280;39432;51.902;10.844;2023-12-20T05:58:14;98988.06;;;6.12;100.00
53546;BME280;39432;51.902;10.844;2023-12-20T06:01:05;98977.66;;;6.08;100.00
53546;BME280;39432;51.902;10.844;2023-12-20T06:03:58;98977.09;;;6.06;100.00
53546;BME280;39432;51.902;10.844;2023-12-20T06:06:50;98977.00;;;6.01;100.00
53546;BME280;39432;51.902;10.844;2023-12-20T06:09:41;98970.41;;;5.97;100.00
53546;BME280;39432;51.902;10.844;2023-12-20T06:12:32;98979.63;;;5.96;100.00
53546;BME280;39432;51.902;10.844;2023-12-20T06:15:23;98972.91;;;5.99;100.00
53546;BME280;39432;51.902;10.844;2023-12-20T06:18:13;98967.13;;;5.95;100.00
53546;BME280;39432;51.902;10.844;2023-12-20T06:21:07;98958.38;;;5.93;100.00
53546;BME280;39432;51.902;10.844;2023-12-20T06:24:00;98962.25;;;5.97;100.00
53546;BME280;39432;51.902;10.844;2023-12-20T06:26:50;98956.63;;;5.99;100.00
53546;BME280;39432;51.902;10.844;2023-12-20T06:29:40;98955.28;;;6.01;100.00
53546;BME280;39432;51.902;10.844;2023-12-20T06:32:32;98960.97;;;6.00;100.00
53546;BME280;39432;51.902;10.844;2023-12-20T06:35:22;98968.28;;;5.99;100.00
53546;BME280;39432;51.902;10.844;2023-12-20T06:38:15;98961.97;;;6.11;100.00
53546;BME280;39432;51.902;10.844;2023-12-20T06:41:05;98957.91;;;5.96;100.00
53546;BME280;39432;51.902;10.844;2023-12-20T06:43:55;98953.31;;;6.14;100.00
53546;BME280;39432;51.902;10.844;2023-12-20T06:46:46;98945.34;;;6.07;100.00
53546;BME280;39432;51.902;10.844;2023-12-20T06:49:36;98953.97;;;6.04;100.00
53546;BME280;39432;51.902;10.844;2023-12-20T06:52:26;98957.53;;;6.04;100.00
53546;BME280;39432;51.902;10.844;2023-12-20T06:55:19;98948.78;;;6.02;100.00
53546;BME280;39432;51.902;10.844;2023-12-20T06:58:09;98941.72;;;6.01;100.00
53546;BME280;39432;51.902;10.844;2023-12-20T07:00:59;98945.97;;;5.97;100.00
53546;BME280;39432;51.902;10.844;2023-12-20T07:03:50;98951.66;;;5.96;100.00
53546;BME280;39432;51.902;10.844;2023-12-20T07:06:40;98953.13;;;6.03;100.00
53546;BME280;39432;51.902;10.844;2023-12-20T07:09:30;98966.88;;;5.97;100.00
53546;BME280;39432;51.902;10.844;2023-12-20T07:12:23;98963.34;;;5.96;100.00
53546;BME280;39432;51.902;10.844;2023-12-20T07:15:13;98975.75;;;5.92;100.00
53546;BME280;39432;51.902;10.844;2023-12-20T07:18:04;98969.88;;;5.84;100.00
53546;BME280;39432;51.902;10.844;2023-12-20T07:20:54;98975.59;;;5.87;100.00
53546;BME280;39432;51.902;10.844;2023-12-20T07:23:44;98977.75;;;5.85;100.00
53546;BME280;39432;51.902;10.844;2023-12-20T07:26:35;98980.38;;;5.80;100.00
53546;BME280;39432;51.902;10.844;2023-12-20T07:29:28;98984.72;;;5.81;100.00
53546;BME280;39432;51.902;10.844;2023-12-20T07:32:18;98990.75;;;5.83;100.00
53546;BME280;39432;51.902;10.844;2023-12-20T07:35:08;98996.41;;;5.81;100.00
53546;BME280;39432;51.902;10.844;2023-12-20T07:37:59;98984.31;;;5.72;100.00
53546;BME280;39432;51.902;10.844;2023-12-20T07:40:49;98997.88;;;5.72;100.00
53546;BME280;39432;51.902;10.844;2023-12-20T07:43:39;99003.53;;;5.71;100.00
53546;BME280;39432;51.902;10.844;2023-12-20T07:46:32;98993.63;;;5.65;100.00
53546;BME280;39432;51.902;10.844;2023-12-20T07:49:22;99003.41;;;5.77;100.00
53546;BME280;39432;51.902;10.844;2023-12-20T07:52:12;99000.91;;;5.76;100.00
53546;BME280;39432;51.902;10.844;2023-12-20T07:55:03;99008.00;;;5.77;100.00
53546;BME280;39432;51.902;10.844;2023-12-20T07:57:54;99005.38;;;5.82;100.00
53546;BME280;39432;51.902;10.844;2023-12-20T08:00:44;99023.78;;;5.80;100.00
53546;BME280;39432;51.902;10.844;2023-12-20T08:03:37;99032.75;;;5.92;100.00
53546;BME280;39432;51.902;10.844;2023-12-20T08:06:28;99039.41;;;5.73;100.00
53546;BME280;39432;51.902;10.844;2023-12-20T08:09:18;99044.81;;;5.73;100.00
53546;BME280;39432;51.902;10.844;2023-12-20T08:12:08;99039.66;;;5.60;100.00
53546;BME280;39432;51.902;10.844;2023-12-20T08:14:59;99037.53;;;5.62;100.00
53546;BME280;39432;51.902;10.844;2023-12-20T08:17:49;99049.91;;;5.69;100.00
53546;BME280;39432;51.902;10.844;2023-12-20T08:20:43;99031.47;;;5.71;100.00
53546;BME280;39432;51.902;10.844;2023-12-20T08:23:34;99029.84;;;5.70;100.00
53546;BME280;39432;51.902;10.844;2023-12-20T08:26:24;99015.91;;;5.78;100.00
53546;BME280;39432;51.902;10.844;2023-12-20T08:29:15;99013.97;;;5.91;100.00
53546;BME280;39432;51.902;10.844;2023-12-20T08:32:05;99007.44;;;6.03;100.00
53546;BME280;39432;51.902;10.844;2023-12-20T08:34:55;98983.59;;;6.05;100.00
53546;BME280;39432;51.902;10.844;2023-12-20T08:37:48;98977.66;;;6.08;100.00
53546;BME280;39432;51.902;10.844;2023-12-20T08:40:38;98975.03;;;6.14;100.00
53546;BME280;39432;51.902;10.844;2023-12-20T08:43:28;98974.56;;;6.17;100.00
53546;BME280;39432;51.902;10.844;2023-12-20T08:46:19;98985.38;;;6.28;100.00
53546;BME280;39432;51.902;10.844;2023-12-20T08:49:09;98975.06;;;6.30;100.00
53546;BME280;39432;51.902;10.844;2023-12-20T08:51:59;98976.66;;;6.26;100.00
53546;BME280;39432;51.902;10.844;2023-12-20T08:54:52;98976.41;;;6.28;100.00
53546;BME280;39432;51.902;10.844;2023-12-20T08:57:42;98963.06;;;6.26;100.00
53546;BME280;39432;51.902;10.844;2023-12-20T09:00:33;98959.94;;;6.34;100.00
53546;BME280;39432;51.902;10.844;2023-12-20T09:03:23;98966.34;;;6.28;100.00
53546;BME280;39432;51.902;10.844;2023-12-20T09:06:13;98955.97;;;6.42;100.00
53546;BME280;39432;51.902;10.844;2023-12-20T09:09:03;98964.28;;;6.52;100.00
53546;BME280;39432;51.902;10.844;2023-12-20T09:11:59;98963.53;;;6.74;100.00
53546;BME280;39432;51.902;10.844;2023-12-20T09:14:50;98959.81;;;6.80;100.00
53546;BME280;39432;51.902;10.844;2023-12-20T09:17:41;98961.81;;;6.84;100.00
53546;BME280;39432;51.902;10.844;2023-12-20T09:20:32;98956.00;;;6.76;100.00
53546;BME280;39432;51.902;10.844;2023-12-20T09:23:24;98950.28;;;6.77;100.00
53546;BME280;39432;51.902;10.844;2023-12-20T09:26:14;98947.47;;;6.89;100.00
53546;BME280;39432;51.902;10.844;2023-12-20T09:29:07;98953.16;;;6.88;100.00
53546;BME280;39432;51.902;10.844;2023-12-20T09:32:02;98946.06;;;7.03;100.00
53546;BME280;39432;51.902;10.844;2023-12-20T09:34:53;98936.50;;;6.84;100.00
53546;BME280;39432;51.902;10.844;2023-12-20T09:37:43;98943.59;;;6.85;100.00
53546;BME280;39432;51.902;10.844;2023-12-20T09:40:34;98947.84;;;6.76;100.00
53546;BME280;39432;51.902;10.844;2023-12-20T09:43:26;98935.50;;;6.90;100.00
53546;BME280;39432;51.902;10.844;2023-12-20T09:46:22;98938.31;;;6.95;100.00
53546;BME280;39432;51.902;10.844;2023-12-20T09:49:15;98941.59;;;6.97;100.00
53546;BME280;39432;51.902;10.844;2023-12-20T09:52:07;98942.56;;;7.08;100.00
53546;BME280;39432;51.902;10.844;2023-12-20T09:55:00;98939.75;;;7.03;100.00
53546;BME280;39432;51.902;10.844;2023-12-20T09:57:53;98927.63;;;6.89;100.00
53546;BME280;39432;51.902;10.844;2023-12-20T10:00:43;98938.97;;;6.85;100.00
53546;BME280;39432;51.902;10.844;2023-12-20T10:03:39;98942.84;;;6.90;100.00
53546;BME280;39432;51.902;10.844;2023-12-20T10:06:31;98933.16;;;6.77;100.00
53546;BME280;39432;51.902;10.844;2023-12-20T10:09:21;98935.06;;;6.76;100.00
53546;BME280;39432;51.902;10.844;2023-12-20T10:12:11;98925.66;;;6.84;100.00
53546;BME280;39432;51.902;10.844;2023-12-20T10:15:02;98925.72;;;6.89;100.00
53546;BME280;39432;51.902;10.844;2023-12-20T10:17:52;98910.97;;;6.85;100.00
53546;BME280;39432;51.902;10.844;2023-12-20T10:20:50;98904.44;;;6.86;100.00
53546;BME280;39432;51.902;10.844;2023-12-20T10:23:40;98899.78;;;6.81;100.00
53546;BME280;39432;51.902;10.844;2023-12-20T10:26:30;98902.81;;;6.85;100.00
53546;BME280;39432;51.902;10.844;2023-12-20T10:29:21;98898.94;;;6.81;100.00
53546;BME280;39432;51.902;10.844;2023-12-20T10:32:24;98881.00;;;6.80;100.00
53546;BME280;39432;51.902;10.844;2023-12-20T10:35:15;98873.88;;;6.96;100.00
53546;BME280;39432;51.902;10.844;2023-12-20T10:38:10;98866.78;;;6.95;100.00
53546;BME280;39432;51.902;10.844;2023-12-20T10:41:03;98862.16;;;6.95;100.00
53546;BME280;39432;51.902;10.844;2023-12-20T10:43:58;98861.22;;;6.84;100.00
53546;BME280;39432;51.902;10.844;2023-12-20T10:46:48;98865.56;;;6.85;100.00
53546;BME280;39432;51.902;10.844;2023-12-20T10:49:45;98855.03;;;6.89;100.00
53546;BME280;39432;51.902;10.844;2023-12-20T10:52:36;98853.44;;;6.93;100.00
53546;BME280;39432;51.902;10.844;2023-12-20T10:55:30;98845.44;;;7.03;100.00
53546;BME280;39432;51.902;10.844;2023-12-20T10:58:21;98849.25;;;7.07;100.00
53546;BME280;39432;51.902;10.844;2023-12-20T11:01:13;98849.31;;;7.12;100.00
53546;BME280;39432;51.902;10.844;2023-12-20T11:04:06;98830.69;;;6.99;100.00
53546;BME280;39432;51.902;10.844;2023-12-20T11:07:04;98828.66;;;6.90;100.00
53546;BME280;39432;51.902;10.844;2023-12-20T11:10:00;98827.84;;;7.11;100.00
53546;BME280;39432;51.902;10.844;2023-12-20T11:13:00;98823.03;;;6.96;100.00
53546;BME280;39432;51.902;10.844;2023-12-20T11:15:59;98837.63;;;6.90;100.00
53546;BME280;39432;51.902;10.844;2023-12-20T11:18:50;98826.56;;;6.97;100.00
53546;BME280;39432;51.902;10.844;2023-12-20T11:21:41;98806.41;;;7.15;100.00
53546;BME280;39432;51.902;10.844;2023-12-20T11:24:31;98810.97;;;7.14;100.00
53546;BME280;39432;51.902;10.844;2023-12-20T11:27:25;98805.88;;;7.18;100.00
53546;BME280;39432;51.902;10.844;2023-12-20T11:30:17;98814.75;;;7.35;100.00
53546;BME280;39432;51.902;10.844;2023-12-20T11:33:07;98807.72;;;7.39;100.00
53546;BME280;39432;51.902;10.844;2023-12-20T11:35:59;98808.81;;;7.38;100.00
53546;BME280;39432;51.902;10.844;2023-12-20T11:38:59;98804.91;;;7.56;100.00
53546;BME280;39432;51.902;10.844;2023-12-20T11:42:04;98798.44;;;7.35;100.00
53546;BME280;39432;51.902;10.844;2023-12-20T11:44:55;98789.66;;;7.28;100.00
53546;BME280;39432;51.902;10.844;2023-12-20T11:47:51;98795.31;;;7.48;100.00
53546;BME280;39432;51.902;10.844;2023-12-20T11:50:41;98785.56;;;7.57;100.00
53546;BME280;39432;51.902;10.844;2023-12-20T11:53:32;98783.28;;;7.44;100.00
53546;BME280;39432;51.902;10.844;2023-12-20T11:56:22;98782.53;;;7.49;100.00
53546;BME280;39432;51.902;10.844;2023-12-20T11:59:12;98780.66;;;7.54;100.00
53546;BME280;39432;51.902;10.844;2023-12-20T12:02:11;98781.81;;;7.58;100.00
53546;BME280;39432;51.902;10.844;2023-12-20T12:05:06;98782.41;;;7.65;100.00
53546;BME280;39432;51.902;10.844;2023-12-20T12:07:56;98778.44;;;7.51;100.00
53546;BME280;39432;51.902;10.844;2023-12-20T12:10:46;98783.38;;;7.54;100.00
53546;BME280;39432;51.902;10.844;2023-12-20T12:13:36;98773.53;;;7.48;100.00
53546;BME280;39432;51.902;10.844;2023-12-20T12:16:27;98788.31;;;7.30;100.00
53546;BME280;39432;51.902;10.844;2023-12-20T12:19:20;98789.59;;;7.23;100.00
53546;BME280;39432;51.902;10.844;2023-12-20T12:22:14;98795.59;;;7.25;100.00
53546;BME280;39432;51.902;10.844;2023-12-20T12:25:11;98809.41;;;7.18;100.00
53546;BME280;39432;51.902;10.844;2023-12-20T12:28:02;98816.00;;;7.00;100.00
53546;BME280;39432;51.902;10.844;2023-12-20T12:30:56;98812.22;;;7.01;100.00
53546;BME280;39432;51.902;10.844;2023-12-20T12:33:47;98813.84;;;7.02;100.00
53546;BME280;39432;51.902;10.844;2023-12-20T12:36:37;98802.28;;;6.90;100.00
53546;BME280;39432;51.902;10.844;2023-12-20T12:39:30;98805.47;;;6.82;100.00
53546;BME280;39432;51.902;10.844;2023-12-20T12:42:20;98798.47;;;6.91;100.00
53546;BME280;39432;51.902;10.844;2023-12-20T12:45:16;98802.75;;;6.82;100.00
53546;BME280;39432;51.902;10.844;2023-12-20T12:48:07;98790.84;;;6.88;100.00
53546;BME280;39432;51.902;10.844;2023-12-20T12:50:57;98785.47;;;6.93;100.00
53546;BME280;39432;51.902;10.844;2023-12-20T12:53:48;98784.19;;;7.01;100.00
53546;BME280;39432;51.902;10.844;2023-12-20T12:56:41;98786.66;;;7.02;100.00
53546;BME280;39432;51.902;10.844;2023-12-20T12:59:31;98780.16;;;7.03;100.00
53546;BME280;39432;51.902;10.844;2023-12-20T13:02:26;98783.69;;;7.04;100.00
53546;BME280;39432;51.902;10.844;2023-12-20T13:05:16;98777.38;;;6.98;100.00
53546;BME280;39432;51.902;10.844;2023-12-20T13:08:06;98781.53;;;7.06;100.00
53546;BME280;39432;51.902;10.844;2023-12-20T13:10:59;98782.34;;;7.06;100.00
53546;BME280;39432;51.902;10.844;2023-12-20T13:13:53;98773.84;;;6.98;100.00
53546;BME280;39432;51.902;10.844;2023-12-20T13:16:44;98777.50;;;6.86;100.00
53546;BME280;39432;51.902;10.844;2023-12-20T13:19:35;98786.75;;;7.12;100.00
53546;BME280;39432;51.902;10.844;2023-12-20T13:22:25;98778.56;;;7.07;100.00
53546;BME280;39432;51.902;10.844;2023-12-20T13:25:16;98789.16;;;7.31;100.00
53546;BME280;39432;51.902;10.844;2023-12-20T13:28:06;98800.56;;;6.40;100.00
53546;BME280;39432;51.902;10.844;2023-12-20T13:30:59;98823.00;;;5.51;100.00
53546;BME280;39432;51.902;10.844;2023-12-20T13:33:50;98848.78;;;5.09;100.00
53546;BME280;39432;51.902;10.844;2023-12-20T13:36:41;98872.16;;;4.86;100.00
53546;BME280;39432;51.902;10.844;2023-12-20T13:39:33;98896.72;;;4.68;100.00
53546;BME280;39432;51.902;10.844;2023-12-20T13:42:23;98914.22;;;4.77;100.00
53546;BME280;39432;51.902;10.844;2023-12-20T13:45:14;98924.47;;;4.87;100.00
53546;BME280;39432;51.902;10.844;2023-12-20T13:48:07;98921.91;;;4.80;100.00
53546;BME280;39432;51.902;10.844;2023-12-20T13:50:58;98929.91;;;4.87;100.00
53546;BME280;39432;51.902;10.844;2023-12-20T13:53:49;98937.44;;;4.96;100.00
53546;BME280;39432;51.902;10.844;2023-12-20T13:56:40;98949.56;;;5.06;100.00
53546;BME280;39432;51.902;10.844;2023-12-20T13:59:48;98959.56;;;5.17;100.00
53546;BME280;39432;51.902;10.844;2023-12-20T14:02:38;98957.22;;;5.09;100.00
53546;BME280;39432;51.902;10.844;2023-12-20T14:05:31;98964.88;;;5.12;100.00
53546;BME280;39432;51.902;10.844;2023-12-20T14:08:21;98951.31;;;5.12;100.00
53546;BME280;39432;51.902;10.844;2023-12-20T14:11:12;98968.72;;;5.39;100.00
53546;BME280;39432;51.902;10.844;2023-12-20T14:14:03;98958.63;;;5.23;100.00
53546;BME280;39432;51.902;10.844;2023-12-20T14:16:53;98972.75;;;5.25;100.00
53546;BME280;39432;51.902;10.844;2023-12-20T14:19:44;98980.16;;;5.29;100.00
53546;BME280;39432;51.902;10.844;2023-12-20T14:22:37;98977.06;;;5.38;100.00
53546;BME280;39432;51.902;10.844;2023-12-20T14:25:31;98969.78;;;5.26;100.00
53546;BME280;39432;51.902;10.844;2023-12-20T14:28:37;98980.84;;;5.37;100.00
53546;BME280;39432;51.902;10.844;2023-12-20T14:31:27;98971.34;;;5.22;100.00
53546;BME280;39432;51.902;10.844;2023-12-20T14:34:18;98981.94;;;5.24;100.00
53546;BME280;39432;51.902;10.844;2023-12-20T14:37:08;98980.06;;;5.24;100.00
53546;BME280;39432;51.902;10.844;2023-12-20T14:40:01;98970.75;;;5.20;100.00
53546;BME280;39432;51.902;10.844;2023-12-20T14:42:51;98974.88;;;5.23;100.00
53546;BME280;39432;51.902;10.844;2023-12-20T14:45:41;98971.78;;;5.31;100.00
53546;BME280;39432;51.902;10.844;2023-12-20T14:48:31;98954.94;;;5.29;100.00
53546;BME280;39432;51.902;10.844;2023-12-20T14:51:22;98975.28;;;5.43;100.00
53546;BME280;39432;51.902;10.844;2023-12-20T14:54:12;98963.50;;;5.49;100.00
53546;BME280;39432;51.902;10.844;2023-12-20T14:57:05;98955.06;;;5.63;100.00